createdAt,value
2023-12-17T00:02:16.852Z,2.96
2023-12-17T00:05:19.585Z,3.04
2023-12-17T00:08:23.906Z,3.05
2023-12-17T00:11:26.711Z,3.07
2023-12-17T00:14:29.440Z,3.02
2023-12-17T00:17:32.501Z,2.98
2023-12-17T00:20:35.427Z,2.97
2023-12-17T00:23:39.615Z,2.94
2023-12-17T00:26:42.363Z,2.89
2023-12-17T00:29:45.438Z,2.86
2023-12-17T00:32:49.713Z,2.78
2023-12-17T00:35:53.451Z,2.75
2023-12-17T00:38:57.460Z,2.74
2023-12-17T00:42:00.503Z,2.67
2023-12-17T00:45:03.369Z,2.65
2023-12-17T00:48:06.401Z,2.72
2023-12-17T00:51:12.253Z,2.50
2023-12-17T00:54:16.438Z,2.53
2023-12-17T00:57:19.736Z,2.50
2023-12-17T01:00:22.917Z,2.36
2023-12-17T01:03:25.799Z,2.28
2023-12-17T01:06:28.667Z,2.17
2023-12-17T01:09:32.754Z,2.17
2023-12-17T01:12:35.473Z,2.20
2023-12-17T01:15:38.765Z,2.25
2023-12-17T01:18:41.737Z,2.28
2023-12-17T01:21:44.535Z,2.28
2023-12-17T01:24:50.758Z,2.37
2023-12-17T01:27:53.474Z,2.29
2023-12-17T01:30:56.275Z,2.23
2023-12-17T01:33:59.197Z,2.18
2023-12-17T01:37:02.027Z,2.14
2023-12-17T01:40:07.958Z,2.07
2023-12-17T01:43:10.945Z,2.25
2023-12-17T01:46:13.972Z,2.21
2023-12-17T01:49:16.857Z,2.14
2023-12-17T01:52:19.986Z,2.05
2023-12-17T01:55:24.367Z,2.00
2023-12-17T01:58:27.356Z,1.98
2023-12-17T02:01:30.673Z,2.03
2023-12-17T02:04:33.918Z,1.90
2023-12-17T02:07:37.264Z,1.87
2023-12-17T02:10:41.553Z,1.78
2023-12-17T02:13:44.251Z,1.89
2023-12-17T02:16:46.997Z,1.86
2023-12-17T02:19:49.947Z,1.80
2023-12-17T02:22:58.656Z,1.89
2023-12-17T02:26:04.594Z,1.91
2023-12-17T02:29:07.380Z,1.96
2023-12-17T02:32:10.109Z,1.92
2023-12-17T02:35:12.847Z,1.95
2023-12-17T02:38:15.680Z,1.85
2023-12-17T02:41:21.512Z,2.07
2023-12-17T02:44:24.703Z,2.01
2023-12-17T02:47:27.478Z,1.97
2023-12-17T02:50:30.417Z,1.96
2023-12-17T02:53:33.261Z,1.73
2023-12-17T02:56:41.223Z,1.74
2023-12-17T02:59:44.028Z,1.86
2023-12-17T03:02:47.056Z,1.79
2023-12-17T03:05:50.057Z,1.97
2023-12-17T03:08:53.264Z,1.97
2023-12-17T03:11:57.671Z,1.99
2023-12-17T03:15:00.607Z,1.99
2023-12-17T03:18:04.778Z,1.84
2023-12-17T03:21:09.629Z,1.53
2023-12-17T03:24:12.415Z,1.87
2023-12-17T03:27:16.815Z,1.93
2023-12-17T03:30:20.062Z,1.94
2023-12-17T03:33:23.226Z,1.79
2023-12-17T03:36:26.493Z,1.81
2023-12-17T03:39:29.389Z,1.78
2023-12-17T03:42:33.577Z,1.89
2023-12-17T03:45:36.864Z,1.86
2023-12-17T03:48:39.765Z,1.79
2023-12-17T03:51:42.571Z,1.87
2023-12-17T03:54:45.804Z,1.63
2023-12-17T03:57:50.083Z,1.61
2023-12-17T04:00:52.854Z,1.72
2023-12-17T04:03:55.920Z,1.57
2023-12-17T04:06:58.774Z,1.79
2023-12-17T04:10:02.776Z,1.69
2023-12-17T04:13:06.900Z,1.61
2023-12-17T04:16:10.096Z,1.50
2023-12-17T04:19:12.957Z,1.40
2023-12-17T04:22:15.771Z,1.64
2023-12-17T04:25:18.529Z,1.69
2023-12-17T04:28:22.631Z,1.77
2023-12-17T04:31:25.474Z,1.66
2023-12-17T04:34:28.491Z,1.49
2023-12-17T04:37:31.440Z,1.26
2023-12-17T04:40:34.201Z,1.53
2023-12-17T04:43:38.308Z,1.56
2023-12-17T04:46:41.219Z,1.53
2023-12-17T04:49:44.046Z,1.56
2023-12-17T04:52:46.949Z,1.59
2023-12-17T04:55:49.763Z,1.67
2023-12-17T04:58:53.886Z,1.74
2023-12-17T05:01:56.663Z,1.80
2023-12-17T05:04:59.587Z,1.83
2023-12-17T05:08:02.724Z,1.81
2023-12-17T05:11:05.853Z,1.77
2023-12-17T05:14:10.519Z,1.79
2023-12-17T05:17:13.356Z,1.73
2023-12-17T05:20:16.338Z,1.73
2023-12-17T05:23:19.086Z,1.73
2023-12-17T05:26:21.911Z,1.67
2023-12-17T05:29:26.060Z,1.68
2023-12-17T05:32:28.824Z,1.66
2023-12-17T05:35:31.618Z,1.80
2023-12-17T05:38:34.891Z,1.68
2023-12-17T05:41:37.658Z,1.62
2023-12-17T05:44:41.779Z,1.50
2023-12-17T05:47:44.993Z,1.58
2023-12-17T05:50:49.033Z,1.56
2023-12-17T05:53:52.079Z,1.62
2023-12-17T05:56:55.521Z,1.81
2023-12-17T05:59:59.696Z,1.79
2023-12-17T06:03:02.533Z,1.74
2023-12-17T06:06:07.643Z,1.66
2023-12-17T06:09:10.753Z,1.59
2023-12-17T06:12:13.667Z,1.77
2023-12-17T06:15:18.117Z,1.66
2023-12-17T06:18:21.125Z,1.59
2023-12-17T06:21:25.702Z,1.44
2023-12-17T06:24:28.610Z,1.46
2023-12-17T06:27:32.843Z,1.46
2023-12-17T06:30:37.788Z,1.47
2023-12-17T06:33:40.854Z,1.65
2023-12-17T06:36:43.656Z,1.70
2023-12-17T06:39:46.677Z,1.65
2023-12-17T06:42:49.443Z,1.68
2023-12-17T06:45:53.725Z,1.51
2023-12-17T06:48:56.590Z,1.44
2023-12-17T06:51:59.506Z,1.58
2023-12-17T06:55:02.398Z,1.52
2023-12-17T06:58:05.784Z,1.44
2023-12-17T07:01:11.841Z,1.42
2023-12-17T07:04:14.885Z,1.44
2023-12-17T07:07:17.904Z,1.51
2023-12-17T07:10:21.711Z,1.53
2023-12-17T07:13:24.462Z,1.43
2023-12-17T07:16:30.360Z,1.35
2023-12-17T07:19:33.170Z,1.26
2023-12-17T07:22:36.020Z,1.23
2023-12-17T07:25:38.889Z,1.37
2023-12-17T07:28:41.784Z,1.44
2023-12-17T07:31:45.919Z,1.36
2023-12-17T07:34:48.695Z,1.22
2023-12-17T07:37:51.445Z,1.19
2023-12-17T07:40:55.376Z,1.19
2023-12-17T07:43:59.059Z,1.25
2023-12-17T07:47:04.352Z,1.24
2023-12-17T07:50:09.273Z,1.31
2023-12-17T07:53:12.028Z,1.38
2023-12-17T07:56:14.919Z,1.54
2023-12-17T07:59:18.009Z,1.72
2023-12-17T08:02:22.205Z,1.66
2023-12-17T08:05:24.992Z,1.73
2023-12-17T08:08:27.727Z,1.58
2023-12-17T08:11:30.590Z,1.58
2023-12-17T08:14:33.433Z,1.51
2023-12-17T08:17:37.740Z,1.53
2023-12-17T08:20:40.592Z,1.68
2023-12-17T08:23:43.356Z,1.64
2023-12-17T08:26:46.998Z,1.57
2023-12-17T08:29:52.330Z,1.63
2023-12-17T08:32:56.731Z,1.69
2023-12-17T08:35:59.557Z,1.88
2023-12-17T08:39:02.466Z,1.95
2023-12-17T08:42:05.811Z,1.95
2023-12-17T08:45:09.872Z,1.85
2023-12-17T08:48:14.392Z,1.96
2023-12-17T08:51:18.449Z,1.92
2023-12-17T08:54:21.231Z,1.88
2023-12-17T08:57:24.026Z,1.89
2023-12-17T09:00:26.906Z,2.03
2023-12-17T09:03:31.104Z,2.08
2023-12-17T09:06:33.969Z,2.03
2023-12-17T09:09:36.734Z,2.00
2023-12-17T09:12:39.517Z,2.02
2023-12-17T09:15:42.475Z,2.09
2023-12-17T09:18:46.738Z,2.08
2023-12-17T09:21:49.589Z,2.19
2023-12-17T09:24:52.432Z,2.41
2023-12-17T09:27:55.283Z,2.43
2023-12-17T09:30:58.165Z,2.51
2023-12-17T09:34:02.365Z,2.72
2023-12-17T09:37:05.519Z,2.74
2023-12-17T09:40:10.198Z,2.61
2023-12-17T09:43:13.041Z,2.61
2023-12-17T09:46:15.960Z,2.72
2023-12-17T09:49:20.291Z,2.74
2023-12-17T09:52:29.876Z,2.75
2023-12-17T09:55:32.834Z,2.89
2023-12-17T09:58:35.593Z,2.98
2023-12-17T10:01:38.385Z,3.12
2023-12-17T10:04:42.631Z,3.27
2023-12-17T10:07:45.979Z,3.36
2023-12-17T10:10:48.997Z,3.35
2023-12-17T10:13:53.032Z,3.37
2023-12-17T10:16:56.004Z,3.26
2023-12-17T10:20:00.895Z,3.24
2023-12-17T10:23:04.822Z,3.16
2023-12-17T10:26:08.243Z,3.08
2023-12-17T10:29:14.657Z,3.04
2023-12-17T10:32:22.493Z,3.22
2023-12-17T10:35:27.597Z,3.30
2023-12-17T10:38:31.081Z,3.43
2023-12-17T10:41:35.173Z,3.52
2023-12-17T10:44:39.754Z,3.59
2023-12-17T10:47:43.077Z,3.70
2023-12-17T10:50:50.471Z,3.84
2023-12-17T10:53:53.373Z,3.81
2023-12-17T10:56:58.660Z,3.59
2023-12-17T11:00:02.826Z,3.77
2023-12-17T11:03:08.289Z,3.87
2023-12-17T11:06:12.827Z,3.90
2023-12-17T11:09:18.164Z,3.86
2023-12-17T11:12:21.101Z,3.75
2023-12-17T11:15:25.266Z,3.62
2023-12-17T11:18:43.521Z,3.68
2023-12-17T11:21:47.876Z,3.76
2023-12-17T11:24:51.018Z,3.76
2023-12-17T11:27:54.931Z,3.88
2023-12-17T11:30:58.253Z,3.97
2023-12-17T11:34:02.299Z,4.09
2023-12-17T11:37:06.615Z,4.29
2023-12-17T11:40:11.089Z,4.39
2023-12-17T11:43:14.170Z,4.60
2023-12-17T11:46:16.966Z,4.73
2023-12-17T11:49:24.928Z,4.77
2023-12-17T11:52:30.152Z,4.83
2023-12-17T11:55:45.754Z,4.89
2023-12-17T11:58:49.134Z,5.06
2023-12-17T12:01:54.563Z,5.03
2023-12-17T12:04:57.552Z,4.99
2023-12-17T12:08:02.531Z,5.09
2023-12-17T12:11:06.190Z,5.24
2023-12-17T12:14:10.269Z,5.21
2023-12-17T12:17:49.050Z,5.24
2023-12-17T12:20:53.341Z,5.20
2023-12-17T12:23:58.387Z,5.33
2023-12-17T12:27:06.474Z,5.49
2023-12-17T12:30:25.938Z,5.42
2023-12-17T12:33:31.669Z,5.40
2023-12-17T12:36:44.894Z,5.22
2023-12-17T12:39:59.941Z,5.48
2023-12-17T12:43:06.435Z,5.48
2023-12-17T12:46:09.807Z,5.54
2023-12-17T12:49:12.723Z,5.48
2023-12-17T12:52:16.538Z,5.44
2023-12-17T12:55:20.637Z,5.50
2023-12-17T12:58:24.082Z,5.47
2023-12-17T13:01:27.129Z,5.29
2023-12-17T13:04:29.965Z,5.56
2023-12-17T13:07:34.151Z,5.58
2023-12-17T13:10:38.392Z,5.61
2023-12-17T13:13:41.274Z,5.76
2023-12-17T13:16:44.057Z,5.73
2023-12-17T13:19:46.951Z,5.70
2023-12-17T13:22:50.019Z,5.67
2023-12-17T13:25:58.188Z,5.74
2023-12-17T13:29:04.253Z,5.72
2023-12-17T13:32:07.766Z,5.73
2023-12-17T13:35:11.248Z,5.74
2023-12-17T13:38:14.160Z,5.78
2023-12-17T13:41:19.484Z,5.73
2023-12-17T13:44:22.270Z,5.84
2023-12-17T13:47:25.454Z,5.83
2023-12-17T13:50:28.233Z,5.82
2023-12-17T13:53:30.978Z,5.80
2023-12-17T13:56:39.167Z,5.87
2023-12-17T13:59:43.910Z,5.83
2023-12-17T14:02:46.678Z,5.84
2023-12-17T14:05:49.524Z,5.84
2023-12-17T14:08:52.553Z,5.70
2023-12-17T14:11:56.766Z,5.67
2023-12-17T14:15:00.762Z,5.75
2023-12-17T14:18:04.991Z,5.66
2023-12-17T14:21:08.804Z,5.62
2023-12-17T14:24:11.636Z,5.58
2023-12-17T14:27:16.083Z,5.52
2023-12-17T14:30:19.046Z,5.58
2023-12-17T14:33:22.046Z,5.49
2023-12-17T14:36:25.143Z,5.45
2023-12-17T14:39:27.948Z,5.41
2023-12-17T14:42:32.076Z,5.34
2023-12-17T14:45:35.127Z,5.27
2023-12-17T14:48:38.065Z,5.31
2023-12-17T14:51:40.918Z,5.41
2023-12-17T14:54:44.169Z,5.42
2023-12-17T14:57:48.627Z,5.36
2023-12-17T15:00:51.870Z,5.31
2023-12-17T15:03:55.471Z,5.14
2023-12-17T15:06:58.557Z,5.02
2023-12-17T15:10:02.555Z,4.95
2023-12-17T15:13:06.920Z,4.90
2023-12-17T15:16:10.212Z,4.82
2023-12-17T15:19:13.365Z,4.76
2023-12-17T15:22:16.780Z,4.67
2023-12-17T15:25:20.517Z,4.67
2023-12-17T15:28:25.375Z,4.58
2023-12-17T15:31:29.922Z,4.65
2023-12-17T15:34:32.794Z,4.54
2023-12-17T15:37:35.557Z,4.51
2023-12-17T15:40:40.597Z,4.49
2023-12-17T15:43:44.811Z,4.42
2023-12-17T15:46:47.560Z,4.37
2023-12-17T15:49:50.360Z,4.26
2023-12-17T15:52:53.109Z,4.36
2023-12-17T15:55:56.014Z,4.21
2023-12-17T15:59:00.166Z,4.31
2023-12-17T16:02:04.354Z,4.36
2023-12-17T16:05:08.074Z,4.27
2023-12-17T16:08:10.880Z,4.19
2023-12-17T16:11:13.713Z,4.32
2023-12-17T16:14:17.859Z,4.33
2023-12-17T16:17:20.970Z,4.20
2023-12-17T16:20:25.468Z,4.14
2023-12-17T16:23:28.450Z,4.08
2023-12-17T16:26:31.420Z,4.04
2023-12-17T16:29:35.584Z,3.95
2023-12-17T16:32:39.992Z,3.87
2023-12-17T16:35:44.357Z,3.87
2023-12-17T16:38:47.238Z,3.82
2023-12-17T16:41:50.000Z,3.58
2023-12-17T16:44:54.335Z,3.77
2023-12-17T16:47:57.594Z,3.70
2023-12-17T16:51:00.625Z,3.66
2023-12-17T16:54:03.507Z,3.63
2023-12-17T16:57:06.884Z,3.71
2023-12-17T17:00:11.891Z,3.71
2023-12-17T17:03:14.839Z,3.67
2023-12-17T17:06:17.630Z,3.72
2023-12-17T17:09:20.728Z,3.74
2023-12-17T17:12:23.688Z,3.64
2023-12-17T17:15:27.932Z,3.66
2023-12-17T17:18:31.876Z,3.62
2023-12-17T17:21:35.109Z,3.53
2023-12-17T17:24:38.118Z,3.44
2023-12-17T17:27:41.171Z,3.53
2023-12-17T17:30:45.547Z,3.27
2023-12-17T17:33:49.907Z,3.52
2023-12-17T17:36:54.208Z,3.45
2023-12-17T17:39:58.839Z,3.39
2023-12-17T17:43:02.890Z,3.28
2023-12-17T17:46:07.786Z,3.24
2023-12-17T17:49:11.214Z,3.19
2023-12-17T17:52:14.070Z,3.18
2023-12-17T17:55:16.882Z,3.06
2023-12-17T17:58:19.639Z,3.11
2023-12-17T18:01:23.786Z,3.12
2023-12-17T18:04:26.719Z,3.12
2023-12-17T18:07:29.558Z,3.09
2023-12-17T18:10:32.353Z,2.94
2023-12-17T18:13:35.787Z,3.05
2023-12-17T18:16:40.074Z,2.95
2023-12-17T18:19:45.327Z,3.03
2023-12-17T18:22:48.126Z,3.00
2023-12-17T18:25:50.857Z,2.97
2023-12-17T18:28:55.534Z,2.94
2023-12-17T18:31:59.741Z,3.00
2023-12-17T18:35:02.476Z,2.92
2023-12-17T18:38:05.797Z,2.89
2023-12-17T18:41:09.007Z,2.87
2023-12-17T18:44:11.792Z,2.77
2023-12-17T18:47:16.064Z,2.59
2023-12-17T18:50:18.830Z,2.82
2023-12-17T18:53:21.790Z,2.80
2023-12-17T18:56:24.604Z,2.67
2023-12-17T18:59:27.370Z,2.78
2023-12-17T19:02:32.006Z,2.75
2023-12-17T19:05:34.818Z,2.69
2023-12-17T19:08:38.287Z,2.69
2023-12-17T19:11:41.599Z,2.67
2023-12-17T19:14:44.344Z,2.65
2023-12-17T19:17:48.534Z,2.58
2023-12-17T19:20:51.359Z,2.47
2023-12-17T19:23:54.917Z,2.55
2023-12-17T19:26:57.861Z,2.60
2023-12-17T19:30:01.336Z,2.61
2023-12-17T19:33:10.473Z,2.59
2023-12-17T19:36:15.432Z,2.55
2023-12-17T19:39:18.478Z,2.58
2023-12-17T19:42:23.057Z,2.55
2023-12-17T19:45:26.468Z,2.53
2023-12-17T19:48:31.957Z,2.52
2023-12-17T19:51:35.082Z,2.50
2023-12-17T19:54:39.780Z,2.47
2023-12-17T19:57:42.933Z,2.57
2023-12-17T20:00:45.853Z,2.60
2023-12-17T20:03:52.243Z,2.61
2023-12-17T20:06:55.671Z,2.60
2023-12-17T20:09:58.567Z,2.77
2023-12-17T20:13:01.628Z,2.82
2023-12-17T20:16:05.973Z,2.91
2023-12-17T20:19:10.796Z,3.00
2023-12-17T20:22:13.783Z,3.04
2023-12-17T20:25:16.636Z,3.06
2023-12-17T20:28:19.546Z,3.27
2023-12-17T20:31:22.425Z,3.26
2023-12-17T20:34:26.827Z,3.18
2023-12-17T20:37:29.831Z,3.14
2023-12-17T20:40:32.865Z,2.92
2023-12-17T20:43:35.793Z,3.08
2023-12-17T20:46:38.584Z,3.35
2023-12-17T20:49:42.725Z,3.24
2023-12-17T20:52:45.531Z,3.29
2023-12-17T20:55:48.297Z,3.17
2023-12-17T20:58:53.152Z,3.20
2023-12-17T21:01:56.156Z,3.04
2023-12-17T21:05:02.012Z,3.06
2023-12-17T21:08:05.320Z,3.08
2023-12-17T21:11:08.661Z,3.02
2023-12-17T21:14:11.434Z,3.07
2023-12-17T21:17:14.314Z,2.91
2023-12-17T21:20:18.589Z,2.96
2023-12-17T21:23:21.473Z,2.95
2023-12-17T21:26:25.397Z,2.95
2023-12-17T21:29:28.806Z,3.04
2023-12-17T21:32:31.620Z,3.00
2023-12-17T21:35:37.800Z,3.08
2023-12-17T21:38:41.536Z,3.01
2023-12-17T21:41:44.514Z,2.93
2023-12-17T21:44:47.436Z,3.16
2023-12-17T21:47:51.137Z,3.11
2023-12-17T21:50:58.325Z,3.15
2023-12-17T21:54:01.418Z,3.29
2023-12-17T21:57:17.441Z,3.12
2023-12-17T22:00:21.951Z,3.18
2023-12-17T22:03:24.800Z,3.27
2023-12-17T22:06:29.165Z,3.26
2023-12-17T22:09:33.260Z,3.35
2023-12-17T22:12:36.976Z,3.18
2023-12-17T22:15:40.020Z,3.04
2023-12-17T22:18:44.956Z,2.95
2023-12-17T22:21:49.980Z,2.99
2023-12-17T22:24:52.732Z,2.96
2023-12-17T22:27:55.561Z,3.00
2023-12-17T22:30:58.560Z,3.07
2023-12-17T22:34:01.597Z,3.03
2023-12-17T22:37:07.779Z,3.18
2023-12-17T22:40:11.364Z,3.24
2023-12-17T22:43:14.327Z,3.26
2023-12-17T22:46:20.184Z,3.00
2023-12-17T22:49:23.235Z,3.28
2023-12-17T22:52:28.198Z,3.36
2023-12-17T22:55:31.832Z,3.38
2023-12-17T22:58:34.756Z,3.40
2023-12-17T23:01:38.287Z,3.45
2023-12-17T23:04:43.090Z,3.50
2023-12-17T23:07:47.582Z,3.32
2023-12-17T23:10:52.085Z,3.33
2023-12-17T23:13:55.136Z,3.25
2023-12-17T23:16:58.167Z,3.17
2023-12-17T23:20:00.988Z,3.26
2023-12-17T23:23:05.474Z,3.29
2023-12-17T23:26:08.540Z,3.11
2023-12-17T23:29:11.648Z,3.00
2023-12-17T23:32:21.954Z,2.89
2023-12-17T23:35:31.188Z,2.93
2023-12-17T23:38:35.371Z,2.97
2023-12-17T23:41:38.148Z,2.96
2023-12-17T23:44:40.856Z,2.95
2023-12-17T23:47:43.974Z,2.81
2023-12-17T23:50:47.145Z,2.74
2023-12-17T23:53:52.510Z,2.27
2023-12-17T23:56:55.291Z,2.61
2023-12-17T23:59:58.053Z,2.60
